sensor_id;sensor_type;location;lat;lon;timestamp;temperature;humidity
11142;DHT22;5625;50.122;19.864;2022-11-20T00:01:15;-2.40;99.90
11142;DHT22;5625;50.122;19.864;2022-11-20T00:03:43;-2.40;99.90
11142;DHT22;5625;50.122;19.864;2022-11-20T00:06:13;-2.40;99.90
11142;DHT22;5625;50.122;19.864;2022-11-20T00:08:44;-2.40;99.90
11142;DHT22;5625;50.122;19.864;2022-11-20T00:11:13;-2.40;99.90
11142;DHT22;5625;50.122;19.864;2022-11-20T00:13:42;-2.40;99.90
11142;DHT22;5625;50.122;19.864;2022-11-20T00:16:12;-2.50;99.90
11142;DHT22;5625;50.122;19.864;2022-11-20T00:18:41;-2.50;99.90
11142;DHT22;5625;50.122;19.864;2022-11-20T00:21:11;-2.50;99.90
11142;DHT22;5625;50.122;19.864;2022-11-20T00:23:40;-2.50;99.90
11142;DHT22;5625;50.122;19.864;2022-11-20T00:26:12;-2.50;99.90
11142;DHT22;5625;50.122;19.864;2022-11-20T00:28:41;-2.50;99.90
11142;DHT22;5625;50.122;19.864;2022-11-20T00:31:10;-2.50;99.90
11142;DHT22;5625;50.122;19.864;2022-11-20T00:33:39;-2.60;99.90
11142;DHT22;5625;50.122;19.864;2022-11-20T00:36:09;-2.60;99.90
11142;DHT22;5625;50.122;19.864;2022-11-20T00:38:37;-2.60;99.90
11142;DHT22;5625;50.122;19.864;2022-11-20T00:41:07;-2.60;99.90
11142;DHT22;5625;50.122;19.864;2022-11-20T00:43:37;-2.60;99.90
11142;DHT22;5625;50.122;19.864;2022-11-20T00:46:08;-2.60;99.90
11142;DHT22;5625;50.122;19.864;2022-11-20T00:48:36;-2.60;99.90
11142;DHT22;5625;50.122;19.864;2022-11-20T00:51:04;-2.70;99.90
11142;DHT22;5625;50.122;19.864;2022-11-20T00:53:32;-2.70;99.90
11142;DHT22;5625;50.122;19.864;2022-11-20T00:56:02;-2.70;99.90
11142;DHT22;5625;50.122;19.864;2022-11-20T00:58:33;-2.70;99.90
11142;DHT22;5625;50.122;19.864;2022-11-20T01:01:04;-2.70;99.90
11142;DHT22;5625;50.122;19.864;2022-11-20T01:03:33;-2.70;99.90
11142;DHT22;5625;50.122;19.864;2022-11-20T01:06:02;-2.80;99.90
11142;DHT22;5625;50.122;19.864;2022-11-20T01:08:32;-2.80;99.90
11142;DHT22;5625;50.122;19.864;2022-11-20T01:11:03;-2.80;99.90
11142;DHT22;5625;50.122;19.864;2022-11-20T01:13:31;-2.80;99.90
11142;DHT22;5625;50.122;19.864;2022-11-20T01:16:08;-2.80;99.90
11142;DHT22;5625;50.122;19.864;2022-11-20T01:18:38;-2.80;99.90
11142;DHT22;5625;50.122;19.864;2022-11-20T01:21:08;-2.80;99.90
11142;DHT22;5625;50.122;19.864;2022-11-20T01:23:38;-2.80;99.90
11142;DHT22;5625;50.122;19.864;2022-11-20T01:26:08;-2.80;99.90
11142;DHT22;5625;50.122;19.864;2022-11-20T01:28:37;-2.90;99.90
11142;DHT22;5625;50.122;19.864;2022-11-20T01:31:13;-2.90;99.90
11142;DHT22;5625;50.122;19.864;2022-11-20T01:33:42;-2.90;99.90
11142;DHT22;5625;50.122;19.864;2022-11-20T01:36:11;-2.90;99.90
11142;DHT22;5625;50.122;19.864;2022-11-20T01:38:39;-2.90;99.90
11142;DHT22;5625;50.122;19.864;2022-11-20T01:41:08;-2.90;99.90
11142;DHT22;5625;50.122;19.864;2022-11-20T01:43:37;-2.90;99.90
11142;DHT22;5625;50.122;19.864;2022-11-20T01:46:14;-2.90;99.90
11142;DHT22;5625;50.122;19.864;2022-11-20T01:48:48;-3.00;99.90
11142;DHT22;5625;50.122;19.864;2022-11-20T01:51:22;-2.90;99.90
11142;DHT22;5625;50.122;19.864;2022-11-20T01:53:53;-3.00;99.90
11142;DHT22;5625;50.122;19.864;2022-11-20T01:56:22;-3.00;99.90
11142;DHT22;5625;50.122;19.864;2022-11-20T01:58:52;-3.00;99.90
11142;DHT22;5625;50.122;19.864;2022-11-20T02:01:23;-3.00;99.90
11142;DHT22;5625;50.122;19.864;2022-11-20T02:03:51;-3.00;99.90
11142;DHT22;5625;50.122;19.864;2022-11-20T02:06:23;-3.10;99.90
11142;DHT22;5625;50.122;19.864;2022-11-20T02:08:52;-3.10;99.90
11142;DHT22;5625;50.122;19.864;2022-11-20T02:11:21;-3.10;99.90
11142;DHT22;5625;50.122;19.864;2022-11-20T02:13:49;-3.10;99.90
11142;DHT22;5625;50.122;19.864;2022-11-20T02:16:21;-3.10;99.90
11142;DHT22;5625;50.122;19.864;2022-11-20T02:18:53;-3.10;99.90
11142;DHT22;5625;50.122;19.864;2022-11-20T02:21:27;-3.20;99.90
11142;DHT22;5625;50.122;19.864;2022-11-20T02:24:06;-3.10;99.90
11142;DHT22;5625;50.122;19.864;2022-11-20T02:26:44;-3.20;99.90
11142;DHT22;5625;50.122;19.864;2022-11-20T02:29:15;-3.20;99.90
11142;DHT22;5625;50.122;19.864;2022-11-20T02:31:46;-3.20;99.90
11142;DHT22;5625;50.122;19.864;2022-11-20T02:34:14;-3.20;99.90
11142;DHT22;5625;50.122;19.864;2022-11-20T02:36:42;-3.30;99.90
11142;DHT22;5625;50.122;19.864;2022-11-20T02:39:15;-3.30;99.90
11142;DHT22;5625;50.122;19.864;2022-11-20T02:41:44;-3.30;99.90
11142;DHT22;5625;50.122;19.864;2022-11-20T02:44:12;-3.30;99.90
11142;DHT22;5625;50.122;19.864;2022-11-20T02:46:40;-3.30;99.90
11142;DHT22;5625;50.122;19.864;2022-11-20T02:49:09;-3.30;99.90
11142;DHT22;5625;50.122;19.864;2022-11-20T02:51:37;-3.40;99.90
11142;DHT22;5625;50.122;19.864;2022-11-20T02:54:04;-3.40;99.90
11142;DHT22;5625;50.122;19.864;2022-11-20T02:56:34;-3.40;99.90
11142;DHT22;5625;50.122;19.864;2022-11-20T02:59:02;-3.40;99.90
11142;DHT22;5625;50.122;19.864;2022-11-20T03:01:31;-3.40;99.90
11142;DHT22;5625;50.122;19.864;2022-11-20T03:03:59;-3.40;99.90
11142;DHT22;5625;50.122;19.864;2022-11-20T03:06:27;-3.40;99.90
11142;DHT22;5625;50.122;19.864;2022-11-20T03:08:55;-3.40;99.90
11142;DHT22;5625;50.122;19.864;2022-11-20T03:11:23;-3.40;99.90
11142;DHT22;5625;50.122;19.864;2022-11-20T03:13:53;-3.40;99.90
11142;DHT22;5625;50.122;19.864;2022-11-20T03:16:22;-3.40;99.90
11142;DHT22;5625;50.122;19.864;2022-11-20T03:18:52;-3.50;99.90
11142;DHT22;5625;50.122;19.864;2022-11-20T03:21:21;-3.50;99.90
11142;DHT22;5625;50.122;19.864;2022-11-20T03:23:49;-3.50;99.90
11142;DHT22;5625;50.122;19.864;2022-11-20T03:26:18;-3.50;99.90
11142;DHT22;5625;50.122;19.864;2022-11-20T03:28:47;-3.50;99.90
11142;DHT22;5625;50.122;19.864;2022-11-20T03:31:20;-3.50;99.90
11142;DHT22;5625;50.122;19.864;2022-11-20T03:33:48;-3.50;99.90
11142;DHT22;5625;50.122;19.864;2022-11-20T03:36:18;-3.60;99.90
11142;DHT22;5625;50.122;19.864;2022-11-20T03:38:47;-3.60;99.90
11142;DHT22;5625;50.122;19.864;2022-11-20T03:41:18;-3.60;99.90
11142;DHT22;5625;50.122;19.864;2022-11-20T03:43:47;-3.60;99.90
11142;DHT22;5625;50.122;19.864;2022-11-20T03:46:17;-3.60;99.90
11142;DHT22;5625;50.122;19.864;2022-11-20T03:48:45;-3.60;99.90
11142;DHT22;5625;50.122;19.864;2022-11-20T03:51:19;-3.70;99.90
11142;DHT22;5625;50.122;19.864;2022-11-20T03:53:49;-3.70;99.90
11142;DHT22;5625;50.122;19.864;2022-11-20T03:56:20;-3.70;99.90
11142;DHT22;5625;50.122;19.864;2022-11-20T03:58:48;-3.70;99.90
11142;DHT22;5625;50.122;19.864;2022-11-20T04:01:19;-3.70;99.90
11142;DHT22;5625;50.122;19.864;2022-11-20T04:03:48;-3.70;99.90
11142;DHT22;5625;50.122;19.864;2022-11-20T04:06:18;-3.70;99.90
11142;DHT22;5625;50.122;19.864;2022-11-20T04:08:47;-3.80;99.90
11142;DHT22;5625;50.122;19.864;2022-11-20T04:11:20;-3.80;99.90
11142;DHT22;5625;50.122;19.864;2022-11-20T04:13:50;-3.90;99.90
11142;DHT22;5625;50.122;19.864;2022-11-20T04:16:20;-3.90;99.90
11142;DHT22;5625;50.122;19.864;2022-11-20T04:18:51;-3.90;99.90
11142;DHT22;5625;50.122;19.864;2022-11-20T04:21:21;-3.90;99.90
11142;DHT22;5625;50.122;19.864;2022-11-20T04:23:49;-3.90;99.90
11142;DHT22;5625;50.122;19.864;2022-11-20T04:26:17;-3.90;99.90
11142;DHT22;5625;50.122;19.864;2022-11-20T04:28:45;-3.90;99.90
11142;DHT22;5625;50.122;19.864;2022-11-20T04:31:15;-3.90;99.90
11142;DHT22;5625;50.122;19.864;2022-11-20T04:33:45;-3.90;99.90
11142;DHT22;5625;50.122;19.864;2022-11-20T04:36:15;-3.90;99.90
11142;DHT22;5625;50.122;19.864;2022-11-20T04:38:43;-3.90;99.90
11142;DHT22;5625;50.122;19.864;2022-11-20T04:41:15;-3.90;99.90
11142;DHT22;5625;50.122;19.864;2022-11-20T04:43:46;-3.90;99.90
11142;DHT22;5625;50.122;19.864;2022-11-20T04:46:16;-3.90;99.90
11142;DHT22;5625;50.122;19.864;2022-11-20T04:48:46;-3.90;99.90
11142;DHT22;5625;50.122;19.864;2022-11-20T04:51:15;-3.90;99.90
11142;DHT22;5625;50.122;19.864;2022-11-20T04:53:43;-3.90;99.90
11142;DHT22;5625;50.122;19.864;2022-11-20T04:56:12;-3.90;99.90
11142;DHT22;5625;50.122;19.864;2022-11-20T04:58:40;-3.90;99.90
11142;DHT22;5625;50.122;19.864;2022-11-20T05:01:10;-3.90;99.90
11142;DHT22;5625;50.122;19.864;2022-11-20T05:03:39;-3.90;99.90
11142;DHT22;5625;50.122;19.864;2022-11-20T05:06:11;-3.90;99.90
11142;DHT22;5625;50.122;19.864;2022-11-20T05:08:39;-4.00;99.90
11142;DHT22;5625;50.122;19.864;2022-11-20T05:11:08;-4.00;99.90
11142;DHT22;5625;50.122;19.864;2022-11-20T05:13:37;-3.90;99.90
11142;DHT22;5625;50.122;19.864;2022-11-20T05:16:07;-4.00;99.90
11142;DHT22;5625;50.122;19.864;2022-11-20T05:18:36;-4.00;99.90
11142;DHT22;5625;50.122;19.864;2022-11-20T05:21:05;-4.00;99.90
11142;DHT22;5625;50.122;19.864;2022-11-20T05:23:35;-4.00;99.90
11142;DHT22;5625;50.122;19.864;2022-11-20T05:26:04;-4.00;99.90
11142;DHT22;5625;50.122;19.864;2022-11-20T05:28:33;-4.00;99.90
11142;DHT22;5625;50.122;19.864;2022-11-20T05:31:05;-4.00;99.90
11142;DHT22;5625;50.122;19.864;2022-11-20T05:33:33;-4.00;99.90
11142;DHT22;5625;50.122;19.864;2022-11-20T05:36:02;-4.00;99.90
11142;DHT22;5625;50.122;19.864;2022-11-20T05:38:31;-4.00;99.90
11142;DHT22;5625;50.122;19.864;2022-11-20T05:41:10;-4.00;99.90
11142;DHT22;5625;50.122;19.864;2022-11-20T05:43:40;-4.00;99.90
11142;DHT22;5625;50.122;19.864;2022-11-20T05:46:10;-4.00;99.90
11142;DHT22;5625;50.122;19.864;2022-11-20T05:48:39;-4.00;99.90
11142;DHT22;5625;50.122;19.864;2022-11-20T05:51:09;-4.00;99.90
11142;DHT22;5625;50.122;19.864;2022-11-20T05:53:38;-4.00;99.90
11142;DHT22;5625;50.122;19.864;2022-11-20T05:56:17;-4.00;99.90
11142;DHT22;5625;50.122;19.864;2022-11-20T05:58:46;-4.00;99.90
11142;DHT22;5625;50.122;19.864;2022-11-20T06:01:16;-4.00;99.90
11142;DHT22;5625;50.122;19.864;2022-11-20T06:03:45;-3.90;99.90
11142;DHT22;5625;50.122;19.864;2022-11-20T06:06:15;-3.90;99.90
11142;DHT22;5625;50.122;19.864;2022-11-20T06:08:43;-3.90;99.90
11142;DHT22;5625;50.122;19.864;2022-11-20T06:11:12;-3.90;99.90
11142;DHT22;5625;50.122;19.864;2022-11-20T06:13:43;-3.90;99.90
11142;DHT22;5625;50.122;19.864;2022-11-20T06:16:12;-3.90;99.90
11142;DHT22;5625;50.122;19.864;2022-11-20T06:18:40;-3.90;99.90
11142;DHT22;5625;50.122;19.864;2022-11-20T06:21:10;-3.80;99.90
11142;DHT22;5625;50.122;19.864;2022-11-20T06:23:39;-3.80;99.90
11142;DHT22;5625;50.122;19.864;2022-11-20T06:26:10;-3.80;99.90
11142;DHT22;5625;50.122;19.864;2022-11-20T06:28:38;-3.80;99.90
11142;DHT22;5625;50.122;19.864;2022-11-20T06:31:11;-3.80;99.90
11142;DHT22;5625;50.122;19.864;2022-11-20T06:33:40;-3.80;99.90
11142;DHT22;5625;50.122;19.864;2022-11-20T06:36:10;-3.80;99.90
11142;DHT22;5625;50.122;19.864;2022-11-20T06:38:38;-3.80;99.90
11142;DHT22;5625;50.122;19.864;2022-11-20T06:41:08;-3.70;99.90
11142;DHT22;5625;50.122;19.864;2022-11-20T06:43:38;-3.70;99.90
11142;DHT22;5625;50.122;19.864;2022-11-20T06:46:08;-3.70;99.90
11142;DHT22;5625;50.122;19.864;2022-11-20T06:48:36;-3.70;99.90
11142;DHT22;5625;50.122;19.864;2022-11-20T06:51:05;-3.70;99.90
11142;DHT22;5625;50.122;19.864;2022-11-20T06:53:34;-3.70;99.90
11142;DHT22;5625;50.122;19.864;2022-11-20T06:56:03;-3.70;99.90
11142;DHT22;5625;50.122;19.864;2022-11-20T06:58:33;-3.60;99.90
11142;DHT22;5625;50.122;19.864;2022-11-20T07:01:04;-3.60;99.90
11142;DHT22;5625;50.122;19.864;2022-11-20T07:03:34;-3.60;99.90
11142;DHT22;5625;50.122;19.864;2022-11-20T07:06:02;-3.60;99.90
11142;DHT22;5625;50.122;19.864;2022-11-20T07:08:30;-3.50;99.90
11142;DHT22;5625;50.122;19.864;2022-11-20T07:10:59;-3.50;99.90
11142;DHT22;5625;50.122;19.864;2022-11-20T07:13:28;-3.50;99.90
11142;DHT22;5625;50.122;19.864;2022-11-20T07:15:59;-3.40;99.90
11142;DHT22;5625;50.122;19.864;2022-11-20T07:18:28;-3.40;99.90
11142;DHT22;5625;50.122;19.864;2022-11-20T07:21:00;-3.30;99.90
11142;DHT22;5625;50.122;19.864;2022-11-20T07:23:28;-3.20;99.90
11142;DHT22;5625;50.122;19.864;2022-11-20T07:25:56;-3.10;99.90
11142;DHT22;5625;50.122;19.864;2022-11-20T07:28:24;-2.70;99.90
11142;DHT22;5625;50.122;19.864;2022-11-20T07:30:53;-2.00;99.90
11142;DHT22;5625;50.122;19.864;2022-11-20T07:33:21;-1.40;99.90
11142;DHT22;5625;50.122;19.864;2022-11-20T07:35:49;-0.90;99.90
11142;DHT22;5625;50.122;19.864;2022-11-20T07:38:19;-0.40;99.90
11142;DHT22;5625;50.122;19.864;2022-11-20T07:40:47;-0.10;99.90
11142;DHT22;5625;50.122;19.864;2022-11-20T07:43:18;0.20;99.90
11142;DHT22;5625;50.122;19.864;2022-11-20T07:45:46;0.50;99.90
11142;DHT22;5625;50.122;19.864;2022-11-20T07:48:15;0.70;99.90
11142;DHT22;5625;50.122;19.864;2022-11-20T07:50:43;0.80;99.90
11142;DHT22;5625;50.122;19.864;2022-11-20T07:53:12;1.10;99.90
11142;DHT22;5625;50.122;19.864;2022-11-20T07:55:41;1.30;99.90
11142;DHT22;5625;50.122;19.864;2022-11-20T07:58:10;1.20;99.90
11142;DHT22;5625;50.122;19.864;2022-11-20T08:00:38;0.80;99.90
11142;DHT22;5625;50.122;19.864;2022-11-20T08:03:06;0.30;99.90
11142;DHT22;5625;50.122;19.864;2022-11-20T08:05:34;-0.10;99.90
11142;DHT22;5625;50.122;19.864;2022-11-20T08:08:03;-0.30;99.90
11142;DHT22;5625;50.122;19.864;2022-11-20T08:10:31;-0.50;99.90
11142;DHT22;5625;50.122;19.864;2022-11-20T08:13:00;-0.60;99.90
11142;DHT22;5625;50.122;19.864;2022-11-20T08:15:48;-0.70;99.90
11142;DHT22;5625;50.122;19.864;2022-11-20T08:18:18;-0.60;99.90
11142;DHT22;5625;50.122;19.864;2022-11-20T08:21:02;-0.60;99.90
11142;DHT22;5625;50.122;19.864;2022-11-20T08:23:31;-0.70;99.90
11142;DHT22;5625;50.122;19.864;2022-11-20T08:25:59;-0.80;99.90
11142;DHT22;5625;50.122;19.864;2022-11-20T08:28:28;-0.90;99.90
11142;DHT22;5625;50.122;19.864;2022-11-20T08:30:58;-0.90;99.90
11142;DHT22;5625;50.122;19.864;2022-11-20T08:33:26;-1.10;99.90
11142;DHT22;5625;50.122;19.864;2022-11-20T08:35:59;-1.10;99.90
11142;DHT22;5625;50.122;19.864;2022-11-20T08:38:27;-1.20;99.90
11142;DHT22;5625;50.122;19.864;2022-11-20T08:40:56;-1.10;99.90
11142;DHT22;5625;50.122;19.864;2022-11-20T08:43:43;-1.10;99.90
11142;DHT22;5625;50.122;19.864;2022-11-20T08:46:12;-1.10;99.90
11142;DHT22;5625;50.122;19.864;2022-11-20T08:48:40;-1.10;99.90
11142;DHT22;5625;50.122;19.864;2022-11-20T08:51:09;-1.00;99.90
11142;DHT22;5625;50.122;19.864;2022-11-20T08:53:37;-0.80;99.90
11142;DHT22;5625;50.122;19.864;2022-11-20T08:56:05;-0.80;99.90
11142;DHT22;5625;50.122;19.864;2022-11-20T08:58:33;-0.70;99.90
11142;DHT22;5625;50.122;19.864;2022-11-20T09:01:24;-0.50;99.90
11142;DHT22;5625;50.122;19.864;2022-11-20T09:03:55;-0.30;99.90
11142;DHT22;5625;50.122;19.864;2022-11-20T09:06:23;-0.20;99.90
11142;DHT22;5625;50.122;19.864;2022-11-20T09:08:52;0.20;99.90
11142;DHT22;5625;50.122;19.864;2022-11-20T09:11:20;0.70;99.90
11142;DHT22;5625;50.122;19.864;2022-11-20T09:13:48;1.30;99.90
11142;DHT22;5625;50.122;19.864;2022-11-20T09:16:16;1.60;99.90
11142;DHT22;5625;50.122;19.864;2022-11-20T09:18:46;1.80;99.90
11142;DHT22;5625;50.122;19.864;2022-11-20T09:21:33;1.70;99.90
11142;DHT22;5625;50.122;19.864;2022-11-20T09:24:01;1.40;99.90
11142;DHT22;5625;50.122;19.864;2022-11-20T09:26:29;1.20;99.90
11142;DHT22;5625;50.122;19.864;2022-11-20T09:28:57;1.10;99.90
11142;DHT22;5625;50.122;19.864;2022-11-20T09:31:25;0.90;99.90
11142;DHT22;5625;50.122;19.864;2022-11-20T09:33:55;0.80;99.90
11142;DHT22;5625;50.122;19.864;2022-11-20T09:36:23;0.80;99.90
11142;DHT22;5625;50.122;19.864;2022-11-20T09:38:51;0.70;99.90
11142;DHT22;5625;50.122;19.864;2022-11-20T09:41:36;0.70;99.90
11142;DHT22;5625;50.122;19.864;2022-11-20T09:44:12;0.60;99.90
11142;DHT22;5625;50.122;19.864;2022-11-20T09:46:50;0.60;99.90
11142;DHT22;5625;50.122;19.864;2022-11-20T09:49:29;0.60;99.90
11142;DHT22;5625;50.122;19.864;2022-11-20T09:52:03;0.50;99.90
11142;DHT22;5625;50.122;19.864;2022-11-20T09:54:39;0.60;99.90
11142;DHT22;5625;50.122;19.864;2022-11-20T09:57:12;0.50;99.90
11142;DHT22;5625;50.122;19.864;2022-11-20T09:59:43;0.60;99.90
11142;DHT22;5625;50.122;19.864;2022-11-20T10:02:24;0.60;99.90
11142;DHT22;5625;50.122;19.864;2022-11-20T10:04:58;0.60;99.90
11142;DHT22;5625;50.122;19.864;2022-11-20T10:07:31;0.60;99.90
11142;DHT22;5625;50.122;19.864;2022-11-20T10:10:01;0.60;99.90
11142;DHT22;5625;50.122;19.864;2022-11-20T10:12:36;0.70;99.90
11142;DHT22;5625;50.122;19.864;2022-11-20T10:15:17;0.70;99.90
11142;DHT22;5625;50.122;19.864;2022-11-20T10:18:10;0.70;99.90
11142;DHT22;5625;50.122;19.864;2022-11-20T10:20:48;0.70;99.90
11142;DHT22;5625;50.122;19.864;2022-11-20T10:23:30;0.70;99.90
11142;DHT22;5625;50.122;19.864;2022-11-20T10:26:02;0.70;99.90
11142;DHT22;5625;50.122;19.864;2022-11-20T10:28:43;0.70;99.90
11142;DHT22;5625;50.122;19.864;2022-11-20T10:31:29;0.70;99.90
11142;DHT22;5625;50.122;19.864;2022-11-20T10:34:01;0.60;99.90
11142;DHT22;5625;50.122;19.864;2022-11-20T10:36:43;0.50;99.90
11142;DHT22;5625;50.122;19.864;2022-11-20T10:39:18;0.50;99.90
11142;DHT22;5625;50.122;19.864;2022-11-20T10:41:52;0.60;99.90
11142;DHT22;5625;50.122;19.864;2022-11-20T10:44:21;0.60;99.90
11142;DHT22;5625;50.122;19.864;2022-11-20T10:47:04;0.60;99.90
11142;DHT22;5625;50.122;19.864;2022-11-20T10:49:34;0.70;99.90
11142;DHT22;5625;50.122;19.864;2022-11-20T10:52:11;0.80;99.90
11142;DHT22;5625;50.122;19.864;2022-11-20T10:54:46;0.80;99.90
11142;DHT22;5625;50.122;19.864;2022-11-20T10:57:25;0.90;99.90
11142;DHT22;5625;50.122;19.864;2022-11-20T11:00:00;0.90;99.90
11142;DHT22;5625;50.122;19.864;2022-11-20T11:02:34;0.90;99.90
11142;DHT22;5625;50.122;19.864;2022-11-20T11:05:12;0.90;99.90
11142;DHT22;5625;50.122;19.864;2022-11-20T11:07:45;1.00;99.90
11142;DHT22;5625;50.122;19.864;2022-11-20T11:10:21;1.00;99.90
11142;DHT22;5625;50.122;19.864;2022-11-20T11:12:51;1.00;99.90
11142;DHT22;5625;50.122;19.864;2022-11-20T11:15:27;1.10;99.90
11142;DHT22;5625;50.122;19.864;2022-11-20T11:17:56;1.00;99.90
11142;DHT22;5625;50.122;19.864;2022-11-20T11:20:27;1.00;99.90
11142;DHT22;5625;50.122;19.864;2022-11-20T11:22:58;1.00;99.90
11142;DHT22;5625;50.122;19.864;2022-11-20T11:25:30;1.00;99.90
11142;DHT22;5625;50.122;19.864;2022-11-20T11:28:01;1.00;99.90
11142;DHT22;5625;50.122;19.864;2022-11-20T11:30:40;1.10;99.90
11142;DHT22;5625;50.122;19.864;2022-11-20T11:33:10;1.10;99.90
11142;DHT22;5625;50.122;19.864;2022-11-20T11:35:44;1.20;99.90
11142;DHT22;5625;50.122;19.864;2022-11-20T11:38:21;1.30;99.90
11142;DHT22;5625;50.122;19.864;2022-11-20T11:40:53;1.30;99.90
11142;DHT22;5625;50.122;19.864;2022-11-20T11:43:25;1.30;99.90
11142;DHT22;5625;50.122;19.864;2022-11-20T11:46:26;1.20;99.90
11142;DHT22;5625;50.122;19.864;2022-11-20T11:48:57;1.20;99.90
11142;DHT22;5625;50.122;19.864;2022-11-20T11:51:31;1.30;99.90
11142;DHT22;5625;50.122;19.864;2022-11-20T11:54:08;1.30;99.90
11142;DHT22;5625;50.122;19.864;2022-11-20T11:56:42;1.30;99.90
11142;DHT22;5625;50.122;19.864;2022-11-20T11:59:14;1.30;99.90
11142;DHT22;5625;50.122;19.864;2022-11-20T12:01:48;1.40;99.90
11142;DHT22;5625;50.122;19.864;2022-11-20T12:04:23;1.40;99.90
11142;DHT22;5625;50.122;19.864;2022-11-20T12:07:00;1.40;99.90
11142;DHT22;5625;50.122;19.864;2022-11-20T12:09:53;1.50;99.90
11142;DHT22;5625;50.122;19.864;2022-11-20T12:12:27;1.40;99.90
11142;DHT22;5625;50.122;19.864;2022-11-20T12:14:57;1.40;99.90
11142;DHT22;5625;50.122;19.864;2022-11-20T12:17:28;1.40;99.90
11142;DHT22;5625;50.122;19.864;2022-11-20T12:19:56;1.50;99.90
11142;DHT22;5625;50.122;19.864;2022-11-20T12:22:33;1.50;99.90
11142;DHT22;5625;50.122;19.864;2022-11-20T12:25:09;1.40;99.90
11142;DHT22;5625;50.122;19.864;2022-11-20T12:27:51;1.40;99.90
11142;DHT22;5625;50.122;19.864;2022-11-20T12:30:22;1.50;99.90
11142;DHT22;5625;50.122;19.864;2022-11-20T12:36:01;1.40;99.90
11142;DHT22;5625;50.122;19.864;2022-11-20T12:41:40;1.40;99.90
11142;DHT22;5625;50.122;19.864;2022-11-20T12:47:49;1.50;99.90
11142;DHT22;5625;50.122;19.864;2022-11-20T12:50:27;1.40;99.90
11142;DHT22;5625;50.122;19.864;2022-11-20T12:53:04;1.40;99.90
11142;DHT22;5625;50.122;19.864;2022-11-20T12:55:40;1.40;99.90
11142;DHT22;5625;50.122;19.864;2022-11-20T12:58:18;1.40;99.90
11142;DHT22;5625;50.122;19.864;2022-11-20T13:00:54;1.40;99.90
11142;DHT22;5625;50.122;19.864;2022-11-20T13:03:45;1.40;99.90
11142;DHT22;5625;50.122;19.864;2022-11-20T13:06:16;1.40;99.90
11142;DHT22;5625;50.122;19.864;2022-11-20T13:08:49;1.30;99.90
11142;DHT22;5625;50.122;19.864;2022-11-20T13:11:23;1.30;99.90
11142;DHT22;5625;50.122;19.864;2022-11-20T13:14:19;1.30;99.90
11142;DHT22;5625;50.122;19.864;2022-11-20T13:16:55;1.40;99.90
11142;DHT22;5625;50.122;19.864;2022-11-20T13:19:32;1.40;99.90
11142;DHT22;5625;50.122;19.864;2022-11-20T13:22:00;1.30;99.90
11142;DHT22;5625;50.122;19.864;2022-11-20T13:24:30;1.30;99.90
11142;DHT22;5625;50.122;19.864;2022-11-20T13:27:04;1.30;99.90
11142;DHT22;5625;50.122;19.864;2022-11-20T13:29:35;1.30;99.90
11142;DHT22;5625;50.122;19.864;2022-11-20T13:32:12;1.20;99.90
11142;DHT22;5625;50.122;19.864;2022-11-20T13:34:52;1.10;99.90
11142;DHT22;5625;50.122;19.864;2022-11-20T13:37:27;1.10;99.90
11142;DHT22;5625;50.122;19.864;2022-11-20T13:40:11;1.10;99.90
11142;DHT22;5625;50.122;19.864;2022-11-20T13:42:43;1.00;99.90
11142;DHT22;5625;50.122;19.864;2022-11-20T13:45:22;1.10;99.90
11142;DHT22;5625;50.122;19.864;2022-11-20T13:47:52;1.10;99.90
11142;DHT22;5625;50.122;19.864;2022-11-20T13:50:28;1.10;99.90
11142;DHT22;5625;50.122;19.864;2022-11-20T13:53:05;1.00;99.90
11142;DHT22;5625;50.122;19.864;2022-11-20T13:55:39;1.10;99.90
11142;DHT22;5625;50.122;19.864;2022-11-20T13:58:24;1.10;99.90
11142;DHT22;5625;50.122;19.864;2022-11-20T14:01:08;1.10;99.90
11142;DHT22;5625;50.122;19.864;2022-11-20T14:03:38;1.10;99.90
11142;DHT22;5625;50.122;19.864;2022-11-20T14:06:28;1.20;99.90
11142;DHT22;5625;50.122;19.864;2022-11-20T14:08:56;1.10;99.90
11142;DHT22;5625;50.122;19.864;2022-11-20T14:11:26;1.20;99.90
11142;DHT22;5625;50.122;19.864;2022-11-20T14:14:00;1.10;99.90
11142;DHT22;5625;50.122;19.864;2022-11-20T14:16:33;1.10;99.90
11142;DHT22;5625;50.122;19.864;2022-11-20T14:19:25;1.20;99.90
11142;DHT22;5625;50.122;19.864;2022-11-20T14:22:07;1.10;99.90
11142;DHT22;5625;50.122;19.864;2022-11-20T14:24:36;1.10;99.90
11142;DHT22;5625;50.122;19.864;2022-11-20T14:27:09;1.10;99.90
11142;DHT22;5625;50.122;19.864;2022-11-20T14:29:38;1.10;99.90
11142;DHT22;5625;50.122;19.864;2022-11-20T14:32:09;1.10;99.90
11142;DHT22;5625;50.122;19.864;2022-11-20T14:34:40;1.00;99.90
11142;DHT22;5625;50.122;19.864;2022-11-20T14:37:12;1.00;99.90
11142;DHT22;5625;50.122;19.864;2022-11-20T14:39:49;0.90;99.90
11142;DHT22;5625;50.122;19.864;2022-11-20T14:42:20;0.90;99.90
11142;DHT22;5625;50.122;19.864;2022-11-20T14:44:49;0.90;99.90
11142;DHT22;5625;50.122;19.864;2022-11-20T14:47:21;0.90;99.90
11142;DHT22;5625;50.122;19.864;2022-11-20T14:49:51;0.90;99.90
11142;DHT22;5625;50.122;19.864;2022-11-20T14:52:21;0.80;99.90
11142;DHT22;5625;50.122;19.864;2022-11-20T14:54:53;0.70;99.90
11142;DHT22;5625;50.122;19.864;2022-11-20T14:57:24;0.70;99.90
11142;DHT22;5625;50.122;19.864;2022-11-20T15:00:05;0.60;99.90
11142;DHT22;5625;50.122;19.864;2022-11-20T15:02:41;0.60;99.90
11142;DHT22;5625;50.122;19.864;2022-11-20T15:05:11;0.60;99.90
11142;DHT22;5625;50.122;19.864;2022-11-20T15:07:41;0.60;99.90
11142;DHT22;5625;50.122;19.864;2022-11-20T15:10:19;0.50;99.90
11142;DHT22;5625;50.122;19.864;2022-11-20T15:12:49;0.50;99.90
11142;DHT22;5625;50.122;19.864;2022-11-20T15:15:21;0.50;99.90
11142;DHT22;5625;50.122;19.864;2022-11-20T15:17:52;0.40;99.90
11142;DHT22;5625;50.122;19.864;2022-11-20T15:20:24;0.40;99.90
11142;DHT22;5625;50.122;19.864;2022-11-20T15:22:53;0.40;99.90
11142;DHT22;5625;50.122;19.864;2022-11-20T15:25:21;0.30;99.90
11142;DHT22;5625;50.122;19.864;2022-11-20T15:27:53;0.30;99.90
11142;DHT22;5625;50.122;19.864;2022-11-20T15:30:22;0.30;99.90
11142;DHT22;5625;50.122;19.864;2022-11-20T15:32:52;0.30;99.90
11142;DHT22;5625;50.122;19.864;2022-11-20T15:35:20;0.30;99.90
11142;DHT22;5625;50.122;19.864;2022-11-20T15:37:48;0.20;99.90
11142;DHT22;5625;50.122;19.864;2022-11-20T15:40:16;0.20;99.90
11142;DHT22;5625;50.122;19.864;2022-11-20T15:42:44;0.10;99.90
11142;DHT22;5625;50.122;19.864;2022-11-20T15:45:28;0.10;99.90
11142;DHT22;5625;50.122;19.864;2022-11-20T15:48:01;0.00;99.90
11142;DHT22;5625;50.122;19.864;2022-11-20T15:50:36;0.00;99.90
11142;DHT22;5625;50.122;19.864;2022-11-20T15:53:05;0.00;99.90
11142;DHT22;5625;50.122;19.864;2022-11-20T15:55:33;0.10;99.90
11142;DHT22;5625;50.122;19.864;2022-11-20T15:58:01;0.00;99.90
11142;DHT22;5625;50.122;19.864;2022-11-20T16:00:29;0.00;99.90
11142;DHT22;5625;50.122;19.864;2022-11-20T16:02:57;0.00;99.90
11142;DHT22;5625;50.122;19.864;2022-11-20T16:05:29;0.00;99.90
11142;DHT22;5625;50.122;19.864;2022-11-20T16:07:57;0.00;99.90
11142;DHT22;5625;50.122;19.864;2022-11-20T16:10:26;0.00;99.90
11142;DHT22;5625;50.122;19.864;2022-11-20T16:12:54;0.00;99.90
11142;DHT22;5625;50.122;19.864;2022-11-20T16:15:40;0.00;99.90